Time;durP1;ratioP1;P1;durP2;ratioP2;P2;SDS_P1;SDS_P2;PMS_P1;PMS_P2;Temp;Humidity;BMP_temperature;BMP_pressure;BME280_temperature;BME280_humidity;BME280_pressure;Samples;Min_cycle;Max_cycle;Signal;HPM_P1;HPM_P2
2021/11/04 00:00:33;;;;;;;35.38;18.38;;;;;;;13.11;52.76;99889.88;4972138;28;20210;-75
2021/11/04 00:03:01;;;;;;;37.40;18.83;;;;;;;13.09;52.78;99883.75;4991442;28;20053;-75
2021/11/04 00:05:28;;;;;;;38.30;18.67;;;;;;;13.09;52.41;99891.06;4989750;28;20085;-75
2021/11/04 00:08:03;;;;;;;39.15;19.60;;;;;;;13.08;52.42;99887.47;4990941;28;20085;-76
2021/11/04 00:10:31;;;;;;;42.22;21.00;;;;;;;13.07;52.83;99883.03;4975803;28;20055;-76
2021/11/04 00:12:57;;;;;;;36.05;19.52;;;;;;;13.07;52.78;99887.59;5007606;28;20148;-75
2021/11/04 00:15:24;;;;;;;35.70;19.40;;;;;;;13.07;52.34;99879.44;4989806;28;20489;-75
2021/11/04 00:17:52;;;;;;;39.35;19.55;;;;;;;13.06;52.20;99875.84;4973557;28;20494;-76
2021/11/04 00:20:19;;;;;;;37.97;19.27;;;;;;;13.05;52.50;99873.25;4990980;28;20058;-75
2021/11/04 00:22:47;;;;;;;38.13;19.20;;;;;;;13.04;52.34;99874.25;4991650;28;20054;-76
2021/11/04 00:25:14;;;;;;;34.53;17.70;;;;;;;13.03;52.37;99877.97;4989542;28;20517;-75
2021/11/04 00:27:41;;;;;;;38.33;18.67;;;;;;;13.03;52.32;99875.25;4974121;28;20046;-75
2021/11/04 00:30:09;;;;;;;38.92;20.08;;;;;;;13.01;52.42;99878.16;4996811;28;20093;-75
2021/11/04 00:32:36;;;;;;;37.15;18.83;;;;;;;13.00;52.77;99879.16;4989605;28;20046;-76
2021/11/04 00:35:04;;;;;;;36.03;18.95;;;;;;;13.00;52.54;99876.41;4972060;28;20120;-75
2021/11/04 00:37:31;;;;;;;35.88;18.05;;;;;;;12.99;52.78;99879.28;4990982;28;20046;-76
2021/11/04 00:39:57;;;;;;;34.75;17.58;;;;;;;12.98;52.87;99869.38;4973475;28;20505;-76
2021/11/04 00:42:25;;;;;;;37.53;19.27;;;;;;;12.99;52.89;99869.25;5003852;28;20082;-76
2021/11/04 00:44:52;;;;;;;39.63;18.98;;;;;;;12.97;52.70;99865.78;4990836;28;20054;-76
2021/11/04 00:47:18;;;;;;;36.30;18.75;;;;;;;12.99;52.83;99873.81;4997566;28;20152;-76
2021/11/04 00:49:45;;;;;;;37.85;19.17;;;;;;;12.99;52.90;99868.38;4996749;28;20232;-76
2021/11/04 00:52:12;;;;;;;36.78;17.70;;;;;;;12.99;52.78;99871.97;4997020;28;20124;-76
2021/11/04 00:54:39;;;;;;;38.45;18.85;;;;;;;12.99;52.88;99877.41;4996043;28;20096;-76
2021/11/04 00:57:06;;;;;;;40.28;18.88;;;;;;;12.99;52.82;99876.56;4996949;28;20050;-76
2021/11/04 00:59:32;;;;;;;32.92;16.88;;;;;;;13.00;52.95;99875.56;4995764;28;20093;-76
2021/11/04 01:01:59;;;;;;;34.88;18.75;;;;;;;12.99;52.71;99877.41;4980061;28;20050;-76
2021/11/04 01:04:26;;;;;;;38.00;19.23;;;;;;;12.98;52.77;99878.41;4995655;28;20136;-76
2021/11/04 01:06:52;;;;;;;35.90;18.40;;;;;;;12.99;52.80;99884.72;4997114;28;20161;-76
2021/11/04 01:09:19;;;;;;;36.35;18.23;;;;;;;12.99;53.04;99884.72;4997510;28;20453;-76
2021/11/04 01:11:46;;;;;;;37.33;19.27;;;;;;;12.99;53.10;99885.59;5005959;28;20052;-75
2021/11/04 01:14:13;;;;;;;35.17;18.75;;;;;;;13.00;52.81;99883.72;5015236;28;20133;-75
2021/11/04 01:16:40;;;;;;;40.42;19.08;;;;;;;12.99;52.77;99885.59;5012297;28;20309;-75
2021/11/04 01:19:08;;;;;;;33.00;17.58;;;;;;;13.00;53.19;99881.88;4997520;28;20085;-75
2021/11/04 01:21:35;;;;;;;41.63;20.27;;;;;;;13.00;52.95;99876.41;4996125;28;20097;-75
2021/11/04 01:24:02;;;;;;;36.20;18.83;;;;;;;13.01;53.28;99869.09;4995316;28;20561;-75
2021/11/04 01:26:28;;;;;;;35.28;18.42;;;;;;;13.01;53.03;99869.97;4996165;28;20048;-75
2021/11/04 01:28:55;;;;;;;39.35;19.67;;;;;;;13.02;52.83;99873.53;4979603;28;20089;-75
2021/11/04 01:31:21;;;;;;;35.17;18.42;;;;;;;13.01;52.82;99878.16;4995841;28;20050;-75
2021/11/04 01:33:48;;;;;;;37.88;19.25;;;;;;;13.02;53.02;99881.69;4995518;28;20520;-75
2021/11/04 01:36:15;;;;;;;39.17;19.30;;;;;;;13.01;52.77;99883.59;4978892;28;20129;-75
2021/11/04 01:38:41;;;;;;;39.00;19.45;;;;;;;13.01;52.89;99889.03;4996899;28;20137;-75
2021/11/04 01:41:08;;;;;;;36.45;18.05;;;;;;;13.02;52.94;99887.16;5010890;28;20397;-76
2021/11/04 01:43:35;;;;;;;38.50;19.67;;;;;;;13.02;52.75;99882.56;5000911;28;20137;-75
2021/11/04 01:46:02;;;;;;;39.03;18.15;;;;;;;13.02;52.81;99885.28;4995655;28;20105;-75
2021/11/04 01:48:29;;;;;;;40.83;18.90;;;;;;;13.01;52.82;99885.44;4996730;28;20097;-75
2021/11/04 01:50:57;;;;;;;40.03;19.60;;;;;;;13.02;52.74;99884.41;4979147;28;20085;-75
2021/11/04 01:53:24;;;;;;;42.13;19.42;;;;;;;13.00;52.72;99884.59;4979379;28;20116;-75
2021/11/04 01:55:51;;;;;;;42.63;20.27;;;;;;;13.00;53.03;99887.31;4995267;28;20141;-75
2021/11/04 01:58:17;;;;;;;40.42;20.27;;;;;;;12.99;52.78;99893.75;4993315;28;20474;-75
2021/11/04 02:00:44;;;;;;;40.75;20.63;;;;;;;12.99;52.85;99893.75;4975238;28;20365;-75
2021/11/04 02:03:26;;;;;;;39.95;20.10;;;;;;;13.02;52.83;99900.78;4993344;28;20050;-75
2021/11/04 02:06:03;;;;;;;38.30;18.13;;;;;;;13.00;52.97;99902.81;4974718;28;20611;-75
2021/11/04 02:08:48;;;;;;;41.28;20.08;;;;;;;12.98;52.97;99896.63;4984505;28;20046;-75
2021/11/04 02:11:18;;;;;;;40.30;20.63;;;;;;;12.97;52.83;99893.03;4978755;28;20066;-75
2021/11/04 02:13:50;;;;;;;42.35;19.08;;;;;;;12.98;53.04;99894.75;4999753;28;20085;-75
2021/11/04 02:16:17;;;;;;;37.33;17.45;;;;;;;12.95;53.18;99889.59;4975433;28;20082;-75
2021/11/04 02:18:47;;;;;;;42.28;18.95;;;;;;;12.96;52.91;99885.88;4984464;28;20492;-75
2021/11/04 02:21:38;;;;;;;38.92;18.63;;;;;;;12.95;52.79;99885.00;4974706;28;20505;-75
2021/11/04 02:24:23;;;;;;;40.70;19.00;;;;;;;12.95;52.93;99874.09;4992122;28;20082;-75
2021/11/04 02:26:51;;;;;;;37.92;17.70;;;;;;;12.94;52.97;99869.66;4992409;28;20074;-75
2021/11/04 02:29:18;;;;;;;40.25;19.58;;;;;;;12.95;52.68;99865.06;4992999;28;20054;-75
2021/11/04 02:31:49;;;;;;;36.55;17.85;;;;;;;12.94;52.86;99869.66;4990400;28;20077;-75
2021/11/04 02:34:16;;;;;;;41.00;19.20;;;;;;;12.92;52.55;99868.09;4990881;28;20622;-75
2021/11/04 02:36:44;;;;;;;40.25;18.10;;;;;;;12.91;52.73;99872.69;4986487;28;20093;-75
2021/11/04 02:39:12;;;;;;;36.08;17.98;;;;;;;12.90;52.62;99881.00;4986670;28;20093;-75
2021/11/04 02:41:39;;;;;;;37.08;18.55;;;;;;;12.89;52.44;99879.25;5001691;28;20160;-75
2021/11/04 02:44:11;;;;;;;36.50;16.98;;;;;;;12.88;52.54;99893.88;5000122;28;20090;-75
2021/11/04 02:46:38;;;;;;;38.13;18.17;;;;;;;12.84;52.97;99893.31;4991739;28;20069;-75
2021/11/04 02:49:05;;;;;;;38.13;16.98;;;;;;;12.86;52.56;99895.88;4992925;28;20325;-75
2021/11/04 02:51:36;;;;;;;35.70;16.73;;;;;;;12.87;52.57;99898.47;4992465;28;20145;-75
2021/11/04 02:54:06;;;;;;;37.72;16.88;;;;;;;12.85;52.65;99897.72;4974596;28;20058;-75
2021/11/04 02:56:43;;;;;;;36.63;16.55;;;;;;;12.86;52.37;99907.63;4991427;28;20414;-76
2021/11/04 02:59:11;;;;;;;35.75;16.25;;;;;;;12.84;52.62;99916.97;4974524;28;20142;-75
2021/11/04 03:01:46;;;;;;;33.92;16.08;;;;;;;12.84;52.58;99916.97;4999307;28;20086;-75
2021/11/04 03:04:15;;;;;;;32.08;15.32;;;;;;;12.82;52.60;99917.09;5000880;28;20054;-75
2021/11/04 03:06:43;;;;;;;37.65;15.63;;;;;;;12.79;52.56;99922.81;4991379;28;20082;-75
2021/11/04 03:09:09;;;;;;;32.47;15.30;;;;;;;12.79;52.71;99922.81;4996403;28;20128;-75
2021/11/04 03:11:36;;;;;;;32.63;15.23;;;;;;;12.79;52.68;99930.13;5003960;28;20069;-75
2021/11/04 03:14:04;;;;;;;32.78;16.13;;;;;;;12.79;52.96;99927.41;5003582;28;20105;-75
2021/11/04 03:16:36;;;;;;;32.67;14.98;;;;;;;12.80;52.43;99937.31;4985643;28;20137;-75
2021/11/04 03:19:05;;;;;;;37.25;15.93;;;;;;;12.77;53.13;99926.66;5004811;28;20108;-75
2021/11/04 03:21:32;;;;;;;31.27;15.43;;;;;;;12.78;52.75;99926.53;4977913;28;20190;-75
2021/11/04 03:24:00;;;;;;;34.35;16.88;;;;;;;12.79;52.56;99927.41;4991900;28;20129;-76
2021/11/04 03:26:29;;;;;;;34.53;16.88;;;;;;;12.79;52.82;99924.69;4990791;28;20051;-75
2021/11/04 03:28:58;;;;;;;32.28;16.85;;;;;;;12.79;52.65;99920.09;4998046;28;20416;-75
2021/11/04 03:31:25;;;;;;;35.72;16.38;;;;;;;12.79;52.36;99916.50;4990494;28;20081;-75
2021/11/04 03:33:54;;;;;;;35.00;15.88;;;;;;;12.78;52.47;99921.09;4991593;28;20073;-75
2021/11/04 03:36:22;;;;;;;33.20;15.68;;;;;;;12.78;52.40;99921.09;4989889;28;20575;-75
2021/11/04 03:38:49;;;;;;;32.65;15.75;;;;;;;12.78;52.48;99920.22;4974312;28;20169;-75
2021/11/04 03:41:18;;;;;;;34.08;15.65;;;;;;;12.78;52.45;99914.78;4998940;28;20066;-75
2021/11/04 03:43:46;;;;;;;31.13;13.75;;;;;;;12.77;52.35;99918.50;4979483;28;20084;-75
2021/11/04 03:46:13;;;;;;;30.88;14.98;;;;;;;12.75;52.29;99918.66;5005840;28;20081;-75
2021/11/04 03:48:44;;;;;;;28.23;13.32;;;;;;;12.76;52.65;99923.13;5011135;28;20088;-75
2021/11/04 03:51:12;;;;;;;31.80;13.00;;;;;;;12.75;52.53;99917.81;4986633;28;20064;-75
2021/11/04 03:53:40;;;;;;;29.25;13.43;;;;;;;12.76;52.67;99911.38;4991480;28;20050;-74
2021/11/04 03:56:08;;;;;;;27.20;12.13;;;;;;;12.74;52.51;99914.22;5004648;28;20140;-75
2021/11/04 03:58:40;;;;;;;30.60;14.63;;;;;;;12.75;52.72;99918.66;5002803;28;20050;-75
2021/11/04 04:01:08;;;;;;;32.20;14.23;;;;;;;12.75;52.59;99924.13;4991539;28;20092;-75
2021/11/04 04:03:36;;;;;;;31.63;13.68;;;;;;;12.74;52.69;99921.53;4985319;28;20054;-75
2021/11/04 04:06:07;;;;;;;29.83;14.05;;;;;;;12.76;52.82;99916.81;4990223;28;20104;-75
2021/11/04 04:08:37;;;;;;;27.67;13.07;;;;;;;12.75;52.50;99920.53;5009573;28;20073;-75
2021/11/04 04:11:04;;;;;;;28.70;13.52;;;;;;;12.74;52.51;99924.25;5004999;28;20100;-75
2021/11/04 04:13:32;;;;;;;27.85;12.90;;;;;;;12.73;52.73;99930.69;5002124;28;20058;-75
2021/11/04 04:15:59;;;;;;;26.45;12.40;;;;;;;12.73;52.66;99936.13;5002291;28;20078;-75
2021/11/04 04:18:26;;;;;;;30.83;14.77;;;;;;;12.73;52.53;99937.00;4977461;28;20073;-75
2021/11/04 04:20:52;;;;;;;29.73;13.30;;;;;;;12.74;52.37;99948.75;4971840;28;20092;-75
2021/11/04 04:23:19;;;;;;;27.48;13.15;;;;;;;12.73;52.49;99947.03;4990917;28;20070;-75
2021/11/04 04:25:46;;;;;;;28.10;14.18;;;;;;;12.72;52.81;99953.47;4989495;28;20501;-75
2021/11/04 04:28:13;;;;;;;26.67;12.13;;;;;;;12.73;52.54;99964.25;4991008;28;20074;-75
2021/11/04 04:30:40;;;;;;;27.02;12.05;;;;;;;12.72;52.56;99959.78;4989901;28;20417;-75
2021/11/04 04:33:06;;;;;;;27.90;12.25;;;;;;;12.71;52.40;99968.94;4976253;28;20460;-75
2021/11/04 04:35:33;;;;;;;25.98;13.07;;;;;;;12.71;52.71;99965.38;4999657;28;20090;-74
2021/11/04 04:38:00;;;;;;;28.58;12.55;;;;;;;12.70;52.39;99966.34;5003654;28;20081;-75
2021/11/04 04:40:26;;;;;;;25.00;12.07;;;;;;;12.70;52.64;99967.22;4992371;28;20074;-74
2021/11/04 04:42:53;;;;;;;25.83;12.38;;;;;;;12.69;52.43;99972.81;5003461;28;20092;-74
2021/11/04 04:45:21;;;;;;;29.15;12.27;;;;;;;12.68;52.30;99969.25;5002960;28;20520;-75
2021/11/04 04:47:47;;;;;;;26.63;12.38;;;;;;;12.68;52.61;99974.69;4972812;28;20096;-75
2021/11/04 04:50:14;;;;;;;27.48;12.27;;;;;;;12.67;52.44;99972.97;4989635;28;20101;-76
2021/11/04 04:52:41;;;;;;;30.77;13.48;;;;;;;12.66;52.53;99978.53;4990019;28;20129;-76
2021/11/04 04:55:08;;;;;;;29.55;12.80;;;;;;;12.67;52.64;99983.00;4988578;28;20074;-76
2021/11/04 04:57:36;;;;;;;30.48;13.70;;;;;;;12.66;52.75;99987.59;5002425;28;20469;-76
2021/11/04 05:00:11;;;;;;;32.58;13.45;;;;;;;12.68;52.80;99987.44;4965135;28;20086;-76
2021/11/04 05:02:42;;;;;;;28.33;13.05;;;;;;;12.68;52.80;99990.19;4990805;28;20090;-76
2021/11/04 05:05:10;;;;;;;28.00;13.23;;;;;;;12.64;52.53;99997.75;4988590;28;20149;-76
2021/11/04 05:07:38;;;;;;;26.67;12.30;;;;;;;12.65;52.76;100009.50;4990976;28;20096;-76
2021/11/04 05:10:06;;;;;;;26.48;13.05;;;;;;;12.64;52.43;100005.91;4995033;28;20089;-76
2021/11/04 05:12:33;;;;;;;29.40;12.45;;;;;;;12.63;52.67;100006.91;4986506;28;20136;-76
2021/11/04 05:15:00;;;;;;;27.17;12.38;;;;;;;12.63;52.59;99997.88;5008411;28;20057;-75
2021/11/04 05:17:26;;;;;;;28.67;12.80;;;;;;;12.62;52.58;100001.59;4991425;28;20457;-76
2021/11/04 05:19:53;;;;;;;26.38;12.48;;;;;;;12.61;52.70;100005.31;4979573;28;20061;-75
2021/11/04 05:22:19;;;;;;;28.27;12.20;;;;;;;12.61;52.82;99999.84;4993426;28;20528;-76
2021/11/04 05:24:46;;;;;;;24.92;12.27;;;;;;;12.61;52.73;100005.31;4988192;28;20058;-75
2021/11/04 05:27:13;;;;;;;28.65;11.95;;;;;;;12.59;52.52;100008.19;4994704;28;20133;-76
2021/11/04 05:29:40;;;;;;;31.30;13.90;;;;;;;12.58;52.58;100007.31;4971939;28;20101;-75
2021/11/04 05:32:07;;;;;;;26.35;12.45;;;;;;;12.58;52.53;100009.19;4970782;28;20117;-76
2021/11/04 05:34:35;;;;;;;28.52;11.77;;;;;;;12.57;52.52;100005.59;4999132;28;20050;-76
2021/11/04 05:37:04;;;;;;;31.23;13.02;;;;;;;12.58;52.36;100001.00;5007359;28;20053;-76
2021/11/04 05:39:30;;;;;;;29.10;13.63;;;;;;;12.55;52.49;99999.41;4982213;28;20054;-76
2021/11/04 05:41:57;;;;;;;29.58;13.02;;;;;;;12.54;52.66;100005.84;5002600;28;20512;-75
2021/11/04 05:44:23;;;;;;;29.02;12.30;;;;;;;12.53;52.60;100004.13;5000539;28;20145;-76
2021/11/04 05:46:52;;;;;;;28.25;12.18;;;;;;;12.53;52.21;100008.72;5001349;28;20052;-76
2021/11/04 05:49:19;;;;;;;29.85;13.13;;;;;;;12.52;52.29;100009.69;4993380;28;20494;-76
2021/11/04 05:51:45;;;;;;;28.35;13.40;;;;;;;12.50;52.27;100001.69;4991879;28;20096;-76
2021/11/04 05:54:12;;;;;;;29.00;12.73;;;;;;;12.49;52.33;100002.69;4993588;28;20074;-76
2021/11/04 05:56:38;;;;;;;27.38;12.73;;;;;;;12.49;52.33;100010.00;4992256;28;20559;-76
2021/11/04 05:59:05;;;;;;;27.35;12.55;;;;;;;12.47;52.57;100010.13;4992340;28;20579;-76
2021/11/04 06:01:32;;;;;;;25.15;12.02;;;;;;;12.45;52.39;100006.66;4983758;28;20054;-76
2021/11/04 06:03:59;;;;;;;25.10;11.70;;;;;;;12.45;52.57;100009.38;5013227;28;20201;-76
2021/11/04 06:06:26;;;;;;;27.20;12.82;;;;;;;12.44;52.32;100004.94;4996101;28;20158;-76
2021/11/04 06:08:52;;;;;;;26.83;12.38;;;;;;;12.44;52.52;100010.38;4999995;28;20099;-76
2021/11/04 06:11:19;;;;;;;29.30;12.73;;;;;;;12.43;52.54;100014.13;4987021;28;20074;-76
2021/11/04 06:13:45;;;;;;;29.27;14.20;;;;;;;12.43;52.54;100008.69;5003071;28;20073;-76
2021/11/04 06:16:14;;;;;;;26.65;12.43;;;;;;;12.42;52.31;100004.25;4980150;28;20082;-76
2021/11/04 06:18:41;;;;;;;29.63;13.30;;;;;;;12.43;52.74;100013.25;5011497;28;20496;-76
2021/11/04 06:21:12;;;;;;;29.17;13.30;;;;;;;12.43;52.45;100013.25;4978358;28;20074;-75
2021/11/04 06:23:41;;;;;;;29.05;12.93;;;;;;;12.43;52.35;100019.56;4992959;28;20469;-76
2021/11/04 06:26:07;;;;;;;25.98;12.30;;;;;;;12.42;52.47;100016.97;5002914;28;20093;-76
2021/11/04 06:28:35;;;;;;;25.77;12.32;;;;;;;12.41;52.58;100002.50;4998356;28;20123;-76
2021/11/04 06:31:02;;;;;;;26.90;12.23;;;;;;;12.41;52.53;100010.69;5011456;28;20062;-76
2021/11/04 06:33:29;;;;;;;29.83;13.48;;;;;;;12.41;52.33;100007.94;4978121;28;20068;-76
2021/11/04 06:35:55;;;;;;;32.72;13.70;;;;;;;12.40;52.42;100019.84;4991294;28;20104;-76
2021/11/04 06:38:22;;;;;;;31.40;13.10;;;;;;;12.39;52.13;100020.81;4992663;28;20050;-76
2021/11/04 06:40:49;;;;;;;29.33;13.05;;;;;;;12.39;52.31;100022.69;4990747;28;20096;-76
2021/11/04 06:43:16;;;;;;;31.48;13.57;;;;;;;12.38;52.20;100020.97;5007956;28;20053;-76
2021/11/04 06:45:49;;;;;;;26.77;11.60;;;;;;;12.38;52.02;100021.81;4973689;28;20481;-76
2021/11/04 06:48:44;;;;;;;26.55;11.50;;;;;;;12.33;52.14;100023.22;4992726;28;20057;-75
2021/11/04 06:51:17;;;;;;;24.13;10.88;;;;;;;12.34;51.94;100024.97;4990310;28;20050;-76
2021/11/04 06:53:55;;;;;;;24.60;12.20;;;;;;;12.34;52.38;100024.97;4975948;28;20466;-76
2021/11/04 06:56:25;;;;;;;26.92;11.25;;;;;;;12.30;52.09;100023.47;4991173;28;20097;-75
2021/11/04 06:58:54;;;;;;;26.02;10.68;;;;;;;12.30;52.13;100029.78;4997358;28;20072;-76
2021/11/04 07:01:22;;;;;;;25.95;11.90;;;;;;;12.30;52.04;100028.94;4999433;28;20513;-76
2021/11/04 07:03:56;;;;;;;25.25;11.43;;;;;;;12.30;52.07;100037.09;4995066;28;20042;-76
2021/11/04 07:06:27;;;;;;;26.33;11.48;;;;;;;12.26;52.18;100033.78;4985440;28;20153;-75
2021/11/04 07:08:56;;;;;;;26.70;11.35;;;;;;;12.28;52.38;100036.34;4998435;28;20141;-76
2021/11/04 07:11:24;;;;;;;27.52;11.68;;;;;;;12.27;52.47;100042.81;4984862;28;20073;-75
2021/11/04 07:13:52;;;;;;;26.33;12.23;;;;;;;12.28;52.53;100047.25;4990150;28;20082;-76
2021/11/04 07:16:23;;;;;;;29.60;12.05;;;;;;;12.26;52.63;100041.97;4972773;28;20483;-76
2021/11/04 07:18:51;;;;;;;27.05;12.65;;;;;;;12.26;52.32;100041.97;4996653;28;20545;-75
2021/11/04 07:21:24;;;;;;;29.70;13.23;;;;;;;12.29;52.41;100051.69;4990841;28;20513;-76
2021/11/04 07:24:02;;;;;;;27.02;12.25;;;;;;;12.28;52.38;100050.81;4997468;28;20062;-75
2021/11/04 07:26:36;;;;;;;31.63;13.90;;;;;;;12.26;52.37;100061.00;4978051;28;20102;-75
2021/11/04 07:29:05;;;;;;;29.08;13.20;;;;;;;12.25;52.50;100064.72;4992393;28;20573;-76
2021/11/04 07:31:35;;;;;;;30.50;14.15;;;;;;;12.26;52.58;100058.28;4979577;28;20082;-76
2021/11/04 07:34:07;;;;;;;29.73;12.68;;;;;;;12.25;52.56;100069.31;4991391;28;20133;-75
2021/11/04 07:36:36;;;;;;;29.85;13.55;;;;;;;12.26;52.39;100066.44;5000884;28;20085;-76
2021/11/04 07:39:04;;;;;;;29.02;14.13;;;;;;;12.26;52.74;100066.44;4991123;28;20100;-75
2021/11/04 07:41:33;;;;;;;29.00;13.50;;;;;;;12.25;52.72;100070.16;4982873;28;20404;-76
2021/11/04 07:44:02;;;;;;;26.55;12.55;;;;;;;12.27;52.43;100076.31;5003744;28;20104;-76
2021/11/04 07:46:30;;;;;;;27.65;14.18;;;;;;;12.27;52.78;100072.75;4997413;28;20101;-76
2021/11/04 07:48:56;;;;;;;26.50;12.98;;;;;;;12.27;52.43;100075.47;5005686;28;20570;-76
2021/11/04 07:51:23;;;;;;;24.60;12.10;;;;;;;12.26;52.19;100082.78;5010347;28;20057;-75
2021/11/04 07:53:50;;;;;;;27.20;13.55;;;;;;;12.26;52.49;100090.94;4996226;28;20042;-76
2021/11/04 07:56:16;;;;;;;28.15;12.85;;;;;;;12.26;52.57;100093.66;4968833;28;20086;-75
2021/11/04 07:58:43;;;;;;;24.63;11.85;;;;;;;12.26;52.65;100101.84;4983092;28;20461;-76
2021/11/04 08:01:10;;;;;;;25.75;11.88;;;;;;;12.26;52.58;100096.38;4993729;28;20042;-75
2021/11/04 08:03:36;;;;;;;25.67;12.93;;;;;;;12.27;52.68;100100.81;5005705;28;20077;-75
2021/11/04 08:06:04;;;;;;;25.67;13.40;;;;;;;12.28;52.57;100107.13;5002033;28;20065;-76
2021/11/04 08:08:31;;;;;;;27.30;13.30;;;;;;;12.29;52.83;100109.72;4991870;28;20049;-76
2021/11/04 08:10:58;;;;;;;25.17;12.73;;;;;;;12.31;52.95;100117.75;5000563;28;20152;-76
2021/11/04 08:13:24;;;;;;;25.25;12.50;;;;;;;12.32;52.82;100114.91;4993437;28;20049;-76
2021/11/04 08:15:51;;;;;;;27.63;13.77;;;;;;;12.34;52.99;100122.94;4978617;28;20116;-76
2021/11/04 08:18:18;;;;;;;28.02;13.75;;;;;;;12.34;53.09;100126.53;5003032;28;20050;-76
2021/11/04 08:20:45;;;;;;;30.80;14.80;;;;;;;12.36;52.92;100129.97;4993647;28;20058;-76
2021/11/04 08:23:14;;;;;;;25.38;13.13;;;;;;;12.39;52.87;100132.44;4993215;28;20084;-76
2021/11/04 08:25:43;;;;;;;25.45;12.68;;;;;;;12.41;52.92;100140.47;4988876;28;20073;-76
2021/11/04 08:28:10;;;;;;;24.75;12.52;;;;;;;12.41;52.90;100140.47;5002495;28;20116;-75
2021/11/04 08:30:36;;;;;;;22.23;12.45;;;;;;;12.42;52.90;100150.38;5009073;28;20537;-76
2021/11/04 08:33:03;;;;;;;24.27;11.63;;;;;;;12.44;52.88;100149.22;4997071;28;20058;-75
2021/11/04 08:35:30;;;;;;;21.58;11.85;;;;;;;12.45;53.00;100156.41;4988746;28;20505;-76
2021/11/04 08:37:57;;;;;;;18.30;10.35;;;;;;;12.47;52.83;100159.00;4990684;28;20086;-76
2021/11/04 08:40:23;;;;;;;22.42;11.45;;;;;;;12.48;53.00;100163.44;4975204;28;20070;-76
2021/11/04 08:42:51;;;;;;;21.67;11.63;;;;;;;12.48;52.54;100167.03;4998999;28;20042;-76
2021/11/04 08:45:18;;;;;;;22.23;11.18;;;;;;;12.49;52.87;100166.06;4993150;28;20561;-75
2021/11/04 08:47:44;;;;;;;19.92;10.85;;;;;;;12.49;52.87;100162.47;4990575;28;20046;-76
2021/11/04 08:50:12;;;;;;;23.60;12.07;;;;;;;12.51;52.97;100158.63;4989615;28;20759;-76
2021/11/04 08:52:39;;;;;;;24.42;11.63;;;;;;;12.52;52.97;100159.47;4972803;28;20082;-76
2021/11/04 08:55:07;;;;;;;27.45;13.63;;;;;;;12.53;52.92;100159.34;4971855;28;20497;-76
2021/11/04 08:57:38;;;;;;;26.73;13.65;;;;;;;12.55;52.59;100161.94;4992124;28;20108;-76
2021/11/04 09:00:07;;;;;;;24.55;13.18;;;;;;;12.54;52.94;100166.50;4999314;28;20061;-76
2021/11/04 09:02:34;;;;;;;28.75;13.85;;;;;;;12.53;52.70;100159.34;4969539;28;20082;-76
2021/11/04 09:05:06;;;;;;;25.23;13.60;;;;;;;12.54;52.91;100166.50;4983561;28;20116;-76
2021/11/04 09:07:33;;;;;;;26.00;13.50;;;;;;;12.54;52.52;100157.47;4981343;28;20078;-76
2021/11/04 09:10:00;;;;;;;25.42;13.27;;;;;;;12.56;53.09;100169.97;5006186;28;20372;-76
2021/11/04 09:12:27;;;;;;;30.58;14.63;;;;;;;12.56;52.43;100172.69;4990778;28;20049;-75
2021/11/04 09:14:53;;;;;;;29.73;15.20;;;;;;;12.57;52.68;100170.84;5005931;28;20102;-76
2021/11/04 09:17:21;;;;;;;26.90;12.90;;;;;;;12.57;52.65;100173.56;5007168;28;20093;-75
2021/11/04 09:19:47;;;;;;;26.23;13.07;;;;;;;12.57;52.71;100173.56;4993147;28;20125;-76
2021/11/04 09:22:14;;;;;;;26.65;12.63;;;;;;;12.57;52.56;100188.03;5004567;28;20465;-75
2021/11/04 09:24:41;;;;;;;29.33;12.57;;;;;;;12.58;52.46;100188.91;4981665;28;20486;-76
2021/11/04 09:27:08;;;;;;;23.30;12.65;;;;;;;12.58;52.62;100195.22;5007055;28;20161;-76
2021/11/04 09:29:35;;;;;;;25.75;12.82;;;;;;;12.58;52.64;100200.66;4997636;28;20129;-77
2021/11/04 09:32:06;;;;;;;23.92;12.15;;;;;;;12.60;52.44;100199.69;4993770;28;20113;-76
2021/11/04 09:34:52;;;;;;;24.35;11.93;;;;;;;12.58;52.58;100197.06;4978075;28;20056;-76
2021/11/04 09:37:19;;;;;;;23.10;11.48;;;;;;;12.58;52.74;100200.66;4995760;28;20085;-76
2021/11/04 09:39:54;;;;;;;23.70;11.27;;;;;;;12.64;52.40;100184.78;5000033;28;20118;-76
2021/11/04 09:42:22;;;;;;;19.15;10.38;;;;;;;12.61;52.47;100182.31;5003051;28;20524;-76
2021/11/04 09:44:50;;;;;;;19.40;10.48;;;;;;;12.61;52.65;100193.19;4999442;28;20136;-75
2021/11/04 09:47:28;;;;;;;19.10;9.88;;;;;;;12.62;52.90;100209.41;4993380;28;20508;-75
2021/11/04 09:50:04;;;;;;;21.77;10.60;;;;;;;12.62;52.61;100216.72;4991333;28;20097;-75
2021/11/04 09:52:33;;;;;;;18.20;9.95;;;;;;;12.60;52.84;100214.13;5002802;28;20120;-75
2021/11/04 09:55:02;;;;;;;19.83;10.88;;;;;;;12.61;52.60;100218.56;4982664;28;20116;-76
2021/11/04 09:57:29;;;;;;;20.70;10.45;;;;;;;12.61;52.56;100212.25;5010065;28;20100;-75
2021/11/04 09:59:56;;;;;;;21.35;10.63;;;;;;;12.62;52.82;100206.69;5002654;28;20086;-75
2021/11/04 10:02:25;;;;;;;21.20;10.68;;;;;;;12.63;52.69;100207.56;4989062;28;20046;-75
2021/11/04 10:04:53;;;;;;;19.30;10.32;;;;;;;12.63;52.98;100213.88;4991964;28;20129;-74
2021/11/04 10:07:21;;;;;;;20.10;10.55;;;;;;;12.64;53.08;100220.19;5005026;28;20088;-75
2021/11/04 10:10:02;;;;;;;19.98;11.20;;;;;;;12.68;53.15;100229.84;4979054;28;20092;-76
2021/11/04 10:12:28;;;;;;;21.27;11.18;;;;;;;12.65;52.71;100236.41;5001505;28;20074;-75
2021/11/04 10:15:10;;;;;;;20.38;10.32;;;;;;;12.67;53.09;100228.09;5001682;28;20136;-75
2021/11/04 10:17:39;;;;;;;17.95;9.85;;;;;;;12.68;52.85;100238.00;4994449;28;20084;-75
2021/11/04 10:20:27;;;;;;;21.77;11.73;;;;;;;12.71;53.06;100235.00;4980642;28;20113;-75
2021/11/04 10:23:05;;;;;;;20.40;11.02;;;;;;;12.70;53.17;100234.13;4980042;28;20371;-75
2021/11/04 10:25:32;;;;;;;21.60;11.35;;;;;;;12.71;53.10;100240.44;5004405;28;20564;-75
2021/11/04 10:27:59;;;;;;;25.00;13.10;;;;;;;12.71;53.02;100235.88;4988081;28;20136;-75
2021/11/04 10:30:43;;;;;;;23.30;13.38;;;;;;;12.74;53.41;100232.91;5001586;28;20489;-75
2021/11/04 10:33:23;;;;;;;22.40;12.13;;;;;;;12.75;53.46;100236.47;5001180;28;20450;-75
2021/11/04 10:35:55;;;;;;;19.33;11.70;;;;;;;12.75;53.36;100241.94;4980690;28;20497;-75
2021/11/04 10:38:28;;;;;;;23.23;12.50;;;;;;;12.77;53.27;100234.47;4992280;28;20141;-75
2021/11/04 10:40:54;;;;;;;23.10;13.73;;;;;;;12.78;53.15;100241.66;4994394;28;20141;-75
2021/11/04 10:43:21;;;;;;;23.33;13.23;;;;;;;12.79;53.46;100244.25;5011246;28;20128;-75
2021/11/04 10:45:58;;;;;;;22.75;12.70;;;;;;;12.84;53.19;100231.13;4976281;28;20156;-75
2021/11/04 10:48:25;;;;;;;19.80;12.10;;;;;;;12.82;53.31;100238.53;4983176;28;20059;-75
2021/11/04 10:50:51;;;;;;;22.65;12.65;;;;;;;12.85;53.44;100242.84;5000640;28;20070;-75
2021/11/04 10:53:23;;;;;;;22.33;13.25;;;;;;;12.88;53.36;100239.88;4999791;28;20085;-75
2021/11/04 10:56:27;;;;;;;21.15;12.15;;;;;;;12.88;53.46;100237.16;4995925;28;20050;-75
2021/11/04 10:58:59;;;;;;;21.10;12.45;;;;;;;12.90;53.42;100233.31;4987108;28;20046;-75
2021/11/04 11:01:28;;;;;;;21.52;12.43;;;;;;;12.92;53.15;100236.78;4975453;28;20098;-75
2021/11/04 11:04:01;;;;;;;20.23;11.48;;;;;;;12.95;53.04;100239.19;5005185;28;20561;-75
2021/11/04 11:06:32;;;;;;;22.05;12.90;;;;;;;12.96;53.15;100245.53;4977955;28;20050;-76
2021/11/04 11:09:05;;;;;;;22.13;13.07;;;;;;;13.00;53.49;100249.72;5005239;28;20041;-75
2021/11/04 11:11:36;;;;;;;21.83;12.77;;;;;;;12.99;53.12;100242.53;4994812;28;20081;-76
2021/11/04 11:14:03;;;;;;;21.23;12.55;;;;;;;12.99;53.25;100242.53;5004625;28;20077;-75
2021/11/04 11:16:30;;;;;;;20.90;11.60;;;;;;;13.01;52.98;100237.84;4977271;28;20465;-75
2021/11/04 11:18:58;;;;;;;21.92;12.52;;;;;;;13.03;53.27;100243.13;5004832;28;20432;-75